sensor_id;sensor_type;location;lat;lon;timestamp;P1;durP1;ratioP1;P2;durP2;ratioP2
11386;SDS011;5748;53.102;8.456;2023-07-16T00:01:42;0.77;;;0.70;;
11386;SDS011;5748;53.102;8.456;2023-07-16T00:04:08;0.70;;;0.70;;
11386;SDS011;5748;53.102;8.456;2023-07-16T00:06:35;0.70;;;0.70;;
11386;SDS011;5748;53.102;8.456;2023-07-16T00:09:04;1.57;;;0.80;;
11386;SDS011;5748;53.102;8.456;2023-07-16T00:11:31;1.43;;;0.80;;
11386;SDS011;5748;53.102;8.456;2023-07-16T00:13:57;0.60;;;0.60;;
11386;SDS011;5748;53.102;8.456;2023-07-16T00:16:26;0.63;;;0.63;;
11386;SDS011;5748;53.102;8.456;2023-07-16T00:18:53;0.73;;;0.70;;
11386;SDS011;5748;53.102;8.456;2023-07-16T00:21:20;0.77;;;0.77;;
11386;SDS011;5748;53.102;8.456;2023-07-16T00:23:47;0.90;;;0.90;;
11386;SDS011;5748;53.102;8.456;2023-07-16T00:26:15;0.80;;;0.70;;
11386;SDS011;5748;53.102;8.456;2023-07-16T00:28:42;1.30;;;0.70;;
11386;SDS011;5748;53.102;8.456;2023-07-16T00:31:09;0.67;;;0.60;;
11386;SDS011;5748;53.102;8.456;2023-07-16T00:33:36;1.00;;;0.67;;
11386;SDS011;5748;53.102;8.456;2023-07-16T00:36:03;1.50;;;0.80;;
11386;SDS011;5748;53.102;8.456;2023-07-16T00:38:30;0.80;;;0.80;;
11386;SDS011;5748;53.102;8.456;2023-07-16T00:40:57;1.00;;;0.90;;
11386;SDS011;5748;53.102;8.456;2023-07-16T00:43:25;1.33;;;1.10;;
11386;SDS011;5748;53.102;8.456;2023-07-16T00:45:52;1.03;;;0.80;;
11386;SDS011;5748;53.102;8.456;2023-07-16T00:48:19;0.90;;;0.90;;
11386;SDS011;5748;53.102;8.456;2023-07-16T00:50:46;1.17;;;1.00;;
11386;SDS011;5748;53.102;8.456;2023-07-16T00:53:13;0.70;;;0.70;;
11386;SDS011;5748;53.102;8.456;2023-07-16T00:55:40;1.27;;;0.80;;
11386;SDS011;5748;53.102;8.456;2023-07-16T00:58:07;0.80;;;0.80;;
11386;SDS011;5748;53.102;8.456;2023-07-16T01:00:36;0.70;;;0.70;;
11386;SDS011;5748;53.102;8.456;2023-07-16T01:03:06;0.73;;;0.67;;
11386;SDS011;5748;53.102;8.456;2023-07-16T01:05:38;1.10;;;0.83;;
11386;SDS011;5748;53.102;8.456;2023-07-16T01:08:26;0.80;;;0.80;;
11386;SDS011;5748;53.102;8.456;2023-07-16T01:10:59;0.80;;;0.80;;
11386;SDS011;5748;53.102;8.456;2023-07-16T01:13:27;2.23;;;0.97;;
11386;SDS011;5748;53.102;8.456;2023-07-16T01:15:56;0.63;;;0.63;;
11386;SDS011;5748;53.102;8.456;2023-07-16T01:18:23;0.77;;;0.77;;
11386;SDS011;5748;53.102;8.456;2023-07-16T01:20:50;1.00;;;0.90;;
11386;SDS011;5748;53.102;8.456;2023-07-16T01:26:16;0.87;;;0.80;;
11386;SDS011;5748;53.102;8.456;2023-07-16T01:29:10;0.83;;;0.80;;
11386;SDS011;5748;53.102;8.456;2023-07-16T01:31:55;0.70;;;0.70;;
11386;SDS011;5748;53.102;8.456;2023-07-16T01:34:26;0.53;;;0.53;;
11386;SDS011;5748;53.102;8.456;2023-07-16T01:36:58;0.70;;;0.70;;
11386;SDS011;5748;53.102;8.456;2023-07-16T01:39:25;0.80;;;0.80;;
11386;SDS011;5748;53.102;8.456;2023-07-16T01:41:53;0.80;;;0.80;;
11386;SDS011;5748;53.102;8.456;2023-07-16T01:44:21;0.90;;;0.80;;
11386;SDS011;5748;53.102;8.456;2023-07-16T01:46:49;0.90;;;0.80;;
11386;SDS011;5748;53.102;8.456;2023-07-16T01:49:31;0.73;;;0.63;;
11386;SDS011;5748;53.102;8.456;2023-07-16T01:51:59;0.77;;;0.77;;
11386;SDS011;5748;53.102;8.456;2023-07-16T01:54:26;0.93;;;0.73;;
11386;SDS011;5748;53.102;8.456;2023-07-16T01:56:53;1.07;;;0.97;;
11386;SDS011;5748;53.102;8.456;2023-07-16T01:59:22;0.80;;;0.80;;
11386;SDS011;5748;53.102;8.456;2023-07-16T02:01:49;0.80;;;0.70;;
11386;SDS011;5748;53.102;8.456;2023-07-16T02:04:16;1.50;;;0.80;;
11386;SDS011;5748;53.102;8.456;2023-07-16T02:06:42;1.23;;;1.00;;
11386;SDS011;5748;53.102;8.456;2023-07-16T02:09:09;0.80;;;0.80;;
11386;SDS011;5748;53.102;8.456;2023-07-16T02:11:36;0.80;;;0.80;;
11386;SDS011;5748;53.102;8.456;2023-07-16T02:14:03;1.17;;;0.70;;
11386;SDS011;5748;53.102;8.456;2023-07-16T02:16:31;0.90;;;0.80;;
11386;SDS011;5748;53.102;8.456;2023-07-16T02:18:58;0.97;;;0.80;;
11386;SDS011;5748;53.102;8.456;2023-07-16T02:21:25;0.90;;;0.90;;
11386;SDS011;5748;53.102;8.456;2023-07-16T02:23:52;1.17;;;0.90;;
11386;SDS011;5748;53.102;8.456;2023-07-16T02:26:19;1.67;;;1.10;;
11386;SDS011;5748;53.102;8.456;2023-07-16T02:28:46;1.23;;;0.90;;
11386;SDS011;5748;53.102;8.456;2023-07-16T02:31:13;0.73;;;0.73;;
11386;SDS011;5748;53.102;8.456;2023-07-16T02:33:41;1.07;;;0.80;;
11386;SDS011;5748;53.102;8.456;2023-07-16T02:36:08;2.20;;;0.80;;
11386;SDS011;5748;53.102;8.456;2023-07-16T02:38:35;1.70;;;0.97;;
11386;SDS011;5748;53.102;8.456;2023-07-16T02:41:02;1.33;;;0.93;;
11386;SDS011;5748;53.102;8.456;2023-07-16T02:43:29;0.80;;;0.80;;
11386;SDS011;5748;53.102;8.456;2023-07-16T02:45:56;1.73;;;0.80;;
11386;SDS011;5748;53.102;8.456;2023-07-16T02:48:22;1.10;;;1.00;;
11386;SDS011;5748;53.102;8.456;2023-07-16T02:50:51;0.80;;;0.80;;
11386;SDS011;5748;53.102;8.456;2023-07-16T02:53:18;1.30;;;1.10;;
11386;SDS011;5748;53.102;8.456;2023-07-16T02:55:45;0.97;;;0.87;;
11386;SDS011;5748;53.102;8.456;2023-07-16T02:58:12;1.17;;;0.93;;
11386;SDS011;5748;53.102;8.456;2023-07-16T03:00:39;0.80;;;0.70;;
11386;SDS011;5748;53.102;8.456;2023-07-16T03:03:06;1.60;;;1.00;;
11386;SDS011;5748;53.102;8.456;2023-07-16T03:05:33;0.80;;;0.80;;
11386;SDS011;5748;53.102;8.456;2023-07-16T03:08:01;0.83;;;0.83;;
11386;SDS011;5748;53.102;8.456;2023-07-16T03:10:28;1.47;;;0.90;;
11386;SDS011;5748;53.102;8.456;2023-07-16T03:12:55;1.23;;;0.97;;
11386;SDS011;5748;53.102;8.456;2023-07-16T03:15:21;1.70;;;0.97;;
11386;SDS011;5748;53.102;8.456;2023-07-16T03:17:48;1.60;;;1.00;;
11386;SDS011;5748;53.102;8.456;2023-07-16T03:20:15;1.13;;;0.97;;
11386;SDS011;5748;53.102;8.456;2023-07-16T03:22:42;1.57;;;1.07;;
11386;SDS011;5748;53.102;8.456;2023-07-16T03:25:10;1.37;;;1.20;;
11386;SDS011;5748;53.102;8.456;2023-07-16T03:27:37;1.20;;;1.03;;
11386;SDS011;5748;53.102;8.456;2023-07-16T03:30:05;0.80;;;0.80;;
11386;SDS011;5748;53.102;8.456;2023-07-16T03:32:33;1.13;;;1.03;;
11386;SDS011;5748;53.102;8.456;2023-07-16T03:35:00;1.27;;;1.17;;
11386;SDS011;5748;53.102;8.456;2023-07-16T03:37:27;1.10;;;0.87;;
11386;SDS011;5748;53.102;8.456;2023-07-16T03:39:54;1.40;;;1.00;;
11386;SDS011;5748;53.102;8.456;2023-07-16T03:42:22;0.90;;;0.87;;
11386;SDS011;5748;53.102;8.456;2023-07-16T03:44:49;1.10;;;1.00;;
11386;SDS011;5748;53.102;8.456;2023-07-16T03:47:16;1.53;;;1.13;;
11386;SDS011;5748;53.102;8.456;2023-07-16T03:49:42;2.50;;;1.10;;
11386;SDS011;5748;53.102;8.456;2023-07-16T03:52:09;1.10;;;0.90;;
11386;SDS011;5748;53.102;8.456;2023-07-16T03:54:36;1.20;;;1.00;;
11386;SDS011;5748;53.102;8.456;2023-07-16T03:57:03;1.47;;;1.20;;
11386;SDS011;5748;53.102;8.456;2023-07-16T03:59:32;0.90;;;0.90;;
11386;SDS011;5748;53.102;8.456;2023-07-16T04:01:59;1.17;;;1.07;;
11386;SDS011;5748;53.102;8.456;2023-07-16T04:04:26;1.27;;;1.00;;
11386;SDS011;5748;53.102;8.456;2023-07-16T04:06:53;1.50;;;1.00;;
11386;SDS011;5748;53.102;8.456;2023-07-16T04:09:21;1.10;;;1.00;;
11386;SDS011;5748;53.102;8.456;2023-07-16T04:11:48;1.10;;;1.00;;
11386;SDS011;5748;53.102;8.456;2023-07-16T04:14:15;0.90;;;0.90;;
11386;SDS011;5748;53.102;8.456;2023-07-16T04:16:43;1.17;;;1.00;;
11386;SDS011;5748;53.102;8.456;2023-07-16T04:19:10;1.00;;;0.97;;
11386;SDS011;5748;53.102;8.456;2023-07-16T04:21:37;2.57;;;1.10;;
11386;SDS011;5748;53.102;8.456;2023-07-16T04:24:04;1.20;;;1.10;;
11386;SDS011;5748;53.102;8.456;2023-07-16T04:26:32;1.10;;;1.00;;
11386;SDS011;5748;53.102;8.456;2023-07-16T04:28:59;1.00;;;1.00;;
11386;SDS011;5748;53.102;8.456;2023-07-16T04:31:26;1.33;;;1.10;;
11386;SDS011;5748;53.102;8.456;2023-07-16T04:33:54;1.33;;;0.90;;
11386;SDS011;5748;53.102;8.456;2023-07-16T04:36:21;1.30;;;0.90;;
11386;SDS011;5748;53.102;8.456;2023-07-16T04:38:47;1.03;;;0.93;;
11386;SDS011;5748;53.102;8.456;2023-07-16T04:41:16;1.20;;;1.10;;
11386;SDS011;5748;53.102;8.456;2023-07-16T04:43:43;1.30;;;1.20;;
11386;SDS011;5748;53.102;8.456;2023-07-16T04:46:09;1.20;;;1.10;;
11386;SDS011;5748;53.102;8.456;2023-07-16T04:48:37;1.00;;;0.90;;
11386;SDS011;5748;53.102;8.456;2023-07-16T04:51:05;2.40;;;1.10;;
11386;SDS011;5748;53.102;8.456;2023-07-16T04:53:32;1.23;;;1.00;;
11386;SDS011;5748;53.102;8.456;2023-07-16T04:55:59;1.57;;;1.10;;
11386;SDS011;5748;53.102;8.456;2023-07-16T04:58:24;1.30;;;1.10;;
11386;SDS011;5748;53.102;8.456;2023-07-16T05:00:51;1.00;;;0.90;;
11386;SDS011;5748;53.102;8.456;2023-07-16T05:03:18;1.57;;;1.10;;
11386;SDS011;5748;53.102;8.456;2023-07-16T05:05:45;1.20;;;1.10;;
11386;SDS011;5748;53.102;8.456;2023-07-16T05:08:13;1.40;;;1.10;;
11386;SDS011;5748;53.102;8.456;2023-07-16T05:10:40;1.83;;;1.20;;
11386;SDS011;5748;53.102;8.456;2023-07-16T05:13:07;1.20;;;1.10;;
11386;SDS011;5748;53.102;8.456;2023-07-16T05:15:34;1.10;;;1.00;;
11386;SDS011;5748;53.102;8.456;2023-07-16T05:18:01;1.30;;;1.20;;
11386;SDS011;5748;53.102;8.456;2023-07-16T05:20:28;1.17;;;1.07;;
11386;SDS011;5748;53.102;8.456;2023-07-16T05:22:55;1.53;;;1.10;;
11386;SDS011;5748;53.102;8.456;2023-07-16T05:25:23;1.20;;;1.10;;
11386;SDS011;5748;53.102;8.456;2023-07-16T05:27:50;2.07;;;1.40;;
11386;SDS011;5748;53.102;8.456;2023-07-16T05:30:17;1.97;;;1.50;;
11386;SDS011;5748;53.102;8.456;2023-07-16T05:32:44;1.30;;;1.17;;
11386;SDS011;5748;53.102;8.456;2023-07-16T05:35:11;1.60;;;1.37;;
11386;SDS011;5748;53.102;8.456;2023-07-16T05:37:38;2.87;;;1.30;;
11386;SDS011;5748;53.102;8.456;2023-07-16T05:40:05;3.27;;;1.40;;
11386;SDS011;5748;53.102;8.456;2023-07-16T05:42:35;2.03;;;1.60;;
11386;SDS011;5748;53.102;8.456;2023-07-16T05:45:02;1.77;;;1.50;;
11386;SDS011;5748;53.102;8.456;2023-07-16T05:47:29;1.90;;;1.50;;
11386;SDS011;5748;53.102;8.456;2023-07-16T05:49:56;1.80;;;1.47;;
11386;SDS011;5748;53.102;8.456;2023-07-16T05:52:23;1.57;;;1.47;;
11386;SDS011;5748;53.102;8.456;2023-07-16T05:54:50;1.70;;;1.57;;
11386;SDS011;5748;53.102;8.456;2023-07-16T05:57:17;1.40;;;1.30;;
11386;SDS011;5748;53.102;8.456;2023-07-16T05:59:45;1.30;;;1.20;;
11386;SDS011;5748;53.102;8.456;2023-07-16T06:02:12;1.63;;;1.40;;
11386;SDS011;5748;53.102;8.456;2023-07-16T06:04:39;1.40;;;1.30;;
11386;SDS011;5748;53.102;8.456;2023-07-16T06:07:06;1.80;;;1.40;;
11386;SDS011;5748;53.102;8.456;2023-07-16T06:09:33;1.85;;;1.30;;
11386;SDS011;5748;53.102;8.456;2023-07-16T06:12:00;1.45;;;1.20;;
11386;SDS011;5748;53.102;8.456;2023-07-16T06:14:27;1.38;;;1.20;;
11386;SDS011;5748;53.102;8.456;2023-07-16T06:16:55;1.35;;;1.20;;
11386;SDS011;5748;53.102;8.456;2023-07-16T06:19:22;2.78;;;1.30;;
11386;SDS011;5748;53.102;8.456;2023-07-16T06:21:49;1.20;;;1.10;;
11386;SDS011;5748;53.102;8.456;2023-07-16T06:24:16;1.50;;;1.10;;
11386;SDS011;5748;53.102;8.456;2023-07-16T06:26:43;0.95;;;0.95;;
11386;SDS011;5748;53.102;8.456;2023-07-16T06:29:12;2.38;;;0.95;;
11386;SDS011;5748;53.102;8.456;2023-07-16T06:31:39;2.73;;;1.47;;
11386;SDS011;5748;53.102;8.456;2023-07-16T06:34:10;1.80;;;1.05;;
11386;SDS011;5748;53.102;8.456;2023-07-16T06:36:37;1.15;;;1.05;;
11386;SDS011;5748;53.102;8.456;2023-07-16T06:39:04;1.35;;;1.08;;
11386;SDS011;5748;53.102;8.456;2023-07-16T06:41:31;1.20;;;1.10;;
11386;SDS011;5748;53.102;8.456;2023-07-16T06:43:58;2.15;;;1.20;;
11386;SDS011;5748;53.102;8.456;2023-07-16T06:46:25;1.95;;;1.30;;
11386;SDS011;5748;53.102;8.456;2023-07-16T06:48:52;1.65;;;1.38;;
11386;SDS011;5748;53.102;8.456;2023-07-16T06:51:20;1.40;;;1.20;;
11386;SDS011;5748;53.102;8.456;2023-07-16T06:53:47;1.50;;;1.40;;
11386;SDS011;5748;53.102;8.456;2023-07-16T06:56:14;1.70;;;1.60;;
11386;SDS011;5748;53.102;8.456;2023-07-16T06:58:41;1.70;;;1.60;;
11386;SDS011;5748;53.102;8.456;2023-07-16T07:01:08;2.60;;;1.50;;
11386;SDS011;5748;53.102;8.456;2023-07-16T07:03:34;2.63;;;1.90;;
11386;SDS011;5748;53.102;8.456;2023-07-16T07:06:01;2.10;;;1.90;;
11386;SDS011;5748;53.102;8.456;2023-07-16T07:08:30;1.77;;;1.67;;
11386;SDS011;5748;53.102;8.456;2023-07-16T07:10:57;2.25;;;1.60;;
11386;SDS011;5748;53.102;8.456;2023-07-16T07:13:24;2.85;;;1.80;;
11386;SDS011;5748;53.102;8.456;2023-07-16T07:15:51;3.58;;;2.10;;
11386;SDS011;5748;53.102;8.456;2023-07-16T07:18:18;2.10;;;1.67;;
11386;SDS011;5748;53.102;8.456;2023-07-16T07:20:45;2.65;;;1.80;;
11386;SDS011;5748;53.102;8.456;2023-07-16T07:23:14;2.00;;;1.80;;
11386;SDS011;5748;53.102;8.456;2023-07-16T07:25:43;2.53;;;1.83;;
11386;SDS011;5748;53.102;8.456;2023-07-16T07:28:15;2.20;;;1.90;;
11386;SDS011;5748;53.102;8.456;2023-07-16T07:30:41;2.03;;;1.80;;
11386;SDS011;5748;53.102;8.456;2023-07-16T07:33:08;1.70;;;1.60;;
11386;SDS011;5748;53.102;8.456;2023-07-16T07:35:35;2.50;;;1.90;;
11386;SDS011;5748;53.102;8.456;2023-07-16T07:38:02;2.67;;;1.70;;
11386;SDS011;5748;53.102;8.456;2023-07-16T07:40:29;1.83;;;1.73;;
11386;SDS011;5748;53.102;8.456;2023-07-16T07:42:57;2.20;;;2.00;;
11386;SDS011;5748;53.102;8.456;2023-07-16T07:45:25;1.95;;;1.60;;
11386;SDS011;5748;53.102;8.456;2023-07-16T07:47:52;2.80;;;1.50;;
11386;SDS011;5748;53.102;8.456;2023-07-16T07:50:19;1.73;;;1.60;;
11386;SDS011;5748;53.102;8.456;2023-07-16T07:52:46;1.60;;;1.50;;
11386;SDS011;5748;53.102;8.456;2023-07-16T07:55:13;1.70;;;1.60;;
11386;SDS011;5748;53.102;8.456;2023-07-16T07:57:40;2.67;;;1.60;;
11386;SDS011;5748;53.102;8.456;2023-07-16T08:00:08;1.60;;;1.50;;
11386;SDS011;5748;53.102;8.456;2023-07-16T08:02:37;1.50;;;1.40;;
11386;SDS011;5748;53.102;8.456;2023-07-16T08:05:05;2.40;;;1.60;;
11386;SDS011;5748;53.102;8.456;2023-07-16T08:07:32;1.63;;;1.48;;
11386;SDS011;5748;53.102;8.456;2023-07-16T08:09:59;1.80;;;1.70;;
11386;SDS011;5748;53.102;8.456;2023-07-16T08:12:26;2.00;;;1.80;;
11386;SDS011;5748;53.102;8.456;2023-07-16T08:14:53;1.65;;;1.55;;
11386;SDS011;5748;53.102;8.456;2023-07-16T08:17:21;1.60;;;1.50;;
11386;SDS011;5748;53.102;8.456;2023-07-16T08:19:48;1.63;;;1.50;;
11386;SDS011;5748;53.102;8.456;2023-07-16T08:22:15;1.58;;;1.48;;
11386;SDS011;5748;53.102;8.456;2023-07-16T08:24:42;1.70;;;1.60;;
11386;SDS011;5748;53.102;8.456;2023-07-16T08:27:09;1.30;;;1.20;;
11386;SDS011;5748;53.102;8.456;2023-07-16T08:29:36;1.85;;;1.55;;
11386;SDS011;5748;53.102;8.456;2023-07-16T08:32:03;1.75;;;1.45;;
11386;SDS011;5748;53.102;8.456;2023-07-16T08:34:32;1.63;;;1.40;;
11386;SDS011;5748;53.102;8.456;2023-07-16T08:36:59;1.50;;;1.40;;
11386;SDS011;5748;53.102;8.456;2023-07-16T08:39:26;2.03;;;1.83;;
11386;SDS011;5748;53.102;8.456;2023-07-16T08:41:53;1.70;;;1.50;;
11386;SDS011;5748;53.102;8.456;2023-07-16T08:44:20;2.72;;;1.50;;
11386;SDS011;5748;53.102;8.456;2023-07-16T08:46:47;1.70;;;1.42;;
11386;SDS011;5748;53.102;8.456;2023-07-16T08:49:14;2.08;;;1.40;;
11386;SDS011;5748;53.102;8.456;2023-07-16T08:51:46;2.00;;;1.50;;
11386;SDS011;5748;53.102;8.456;2023-07-16T08:54:14;1.95;;;1.70;;
11386;SDS011;5748;53.102;8.456;2023-07-16T08:56:42;1.75;;;1.60;;
11386;SDS011;5748;53.102;8.456;2023-07-16T08:59:09;1.98;;;1.70;;
11386;SDS011;5748;53.102;8.456;2023-07-16T09:01:36;1.67;;;1.58;;
11386;SDS011;5748;53.102;8.456;2023-07-16T09:04:04;1.42;;;1.33;;
11386;SDS011;5748;53.102;8.456;2023-07-16T09:06:30;1.83;;;1.30;;
11386;SDS011;5748;53.102;8.456;2023-07-16T09:08:59;1.88;;;1.77;;
11386;SDS011;5748;53.102;8.456;2023-07-16T09:11:26;1.77;;;1.67;;
11386;SDS011;5748;53.102;8.456;2023-07-16T09:13:52;1.88;;;1.70;;
11386;SDS011;5748;53.102;8.456;2023-07-16T09:16:20;2.03;;;1.50;;
11386;SDS011;5748;53.102;8.456;2023-07-16T09:18:47;1.88;;;1.73;;
11386;SDS011;5748;53.102;8.456;2023-07-16T09:21:14;2.80;;;1.95;;
11386;SDS011;5748;53.102;8.456;2023-07-16T09:23:41;2.47;;;1.80;;
11386;SDS011;5748;53.102;8.456;2023-07-16T09:26:10;2.33;;;1.90;;
11386;SDS011;5748;53.102;8.456;2023-07-16T09:28:36;2.33;;;2.05;;
11386;SDS011;5748;53.102;8.456;2023-07-16T09:31:03;2.72;;;2.00;;
11386;SDS011;5748;53.102;8.456;2023-07-16T09:33:32;1.95;;;1.80;;
11386;SDS011;5748;53.102;8.456;2023-07-16T09:36:00;1.73;;;1.60;;
11386;SDS011;5748;53.102;8.456;2023-07-16T09:38:27;2.15;;;1.95;;
11386;SDS011;5748;53.102;8.456;2023-07-16T09:40:55;2.22;;;1.60;;
11386;SDS011;5748;53.102;8.456;2023-07-16T09:43:24;1.60;;;1.50;;
11386;SDS011;5748;53.102;8.456;2023-07-16T09:45:51;1.67;;;1.50;;
11386;SDS011;5748;53.102;8.456;2023-07-16T09:48:17;1.90;;;1.55;;
11386;SDS011;5748;53.102;8.456;2023-07-16T09:50:46;1.55;;;1.45;;
11386;SDS011;5748;53.102;8.456;2023-07-16T09:53:20;1.50;;;1.40;;
11386;SDS011;5748;53.102;8.456;2023-07-16T09:55:48;1.52;;;1.42;;
11386;SDS011;5748;53.102;8.456;2023-07-16T09:58:15;1.50;;;1.40;;
11386;SDS011;5748;53.102;8.456;2023-07-16T10:00:46;1.80;;;1.17;;
11386;SDS011;5748;53.102;8.456;2023-07-16T10:03:14;2.15;;;1.20;;
11386;SDS011;5748;53.102;8.456;2023-07-16T10:05:42;1.63;;;1.52;;
11386;SDS011;5748;53.102;8.456;2023-07-16T10:08:15;1.90;;;1.50;;
11386;SDS011;5748;53.102;8.456;2023-07-16T10:10:44;2.70;;;1.40;;
11386;SDS011;5748;53.102;8.456;2023-07-16T10:13:14;1.55;;;1.42;;
11386;SDS011;5748;53.102;8.456;2023-07-16T10:15:51;1.50;;;1.40;;
11386;SDS011;5748;53.102;8.456;2023-07-16T10:18:24;1.75;;;1.30;;
11386;SDS011;5748;53.102;8.456;2023-07-16T10:20:59;1.65;;;1.33;;
11386;SDS011;5748;53.102;8.456;2023-07-16T10:23:36;1.83;;;1.45;;
11386;SDS011;5748;53.102;8.456;2023-07-16T10:26:05;1.40;;;1.30;;
11386;SDS011;5748;53.102;8.456;2023-07-16T10:28:32;1.40;;;1.30;;
11386;SDS011;5748;53.102;8.456;2023-07-16T10:31:01;1.98;;;1.67;;
11386;SDS011;5748;53.102;8.456;2023-07-16T10:33:28;1.42;;;1.15;;
11386;SDS011;5748;53.102;8.456;2023-07-16T10:35:56;2.05;;;1.35;;
11386;SDS011;5748;53.102;8.456;2023-07-16T10:38:24;2.15;;;1.27;;
11386;SDS011;5748;53.102;8.456;2023-07-16T10:40:51;1.40;;;1.10;;
11386;SDS011;5748;53.102;8.456;2023-07-16T10:43:18;1.65;;;1.27;;
11386;SDS011;5748;53.102;8.456;2023-07-16T10:45:46;1.85;;;1.48;;
11386;SDS011;5748;53.102;8.456;2023-07-16T10:48:14;3.00;;;1.48;;
11386;SDS011;5748;53.102;8.456;2023-07-16T10:50:41;1.25;;;1.15;;
11386;SDS011;5748;53.102;8.456;2023-07-16T10:53:08;1.65;;;1.40;;
11386;SDS011;5748;53.102;8.456;2023-07-16T10:55:34;1.33;;;1.15;;
11386;SDS011;5748;53.102;8.456;2023-07-16T10:58:03;1.63;;;1.33;;
11386;SDS011;5748;53.102;8.456;2023-07-16T11:00:31;1.30;;;1.20;;
11386;SDS011;5748;53.102;8.456;2023-07-16T11:03:03;1.30;;;1.20;;
11386;SDS011;5748;53.102;8.456;2023-07-16T11:05:31;1.30;;;1.08;;
11386;SDS011;5748;53.102;8.456;2023-07-16T11:07:58;2.55;;;1.27;;
11386;SDS011;5748;53.102;8.456;2023-07-16T11:10:27;1.55;;;1.40;;
11386;SDS011;5748;53.102;8.456;2023-07-16T11:12:55;1.45;;;1.35;;
11386;SDS011;5748;53.102;8.456;2023-07-16T11:15:30;1.73;;;1.42;;
11386;SDS011;5748;53.102;8.456;2023-07-16T11:17:59;1.30;;;1.20;;
11386;SDS011;5748;53.102;8.456;2023-07-16T11:20:26;1.50;;;1.40;;
11386;SDS011;5748;53.102;8.456;2023-07-16T11:22:57;1.83;;;1.20;;
11386;SDS011;5748;53.102;8.456;2023-07-16T11:25:25;1.55;;;1.42;;
11386;SDS011;5748;53.102;8.456;2023-07-16T11:27:53;2.03;;;1.40;;
11386;SDS011;5748;53.102;8.456;2023-07-16T11:30:22;1.60;;;1.40;;
11386;SDS011;5748;53.102;8.456;2023-07-16T11:32:50;1.63;;;1.40;;
11386;SDS011;5748;53.102;8.456;2023-07-16T11:35:18;2.38;;;1.42;;
11386;SDS011;5748;53.102;8.456;2023-07-16T11:37:46;1.70;;;1.40;;
11386;SDS011;5748;53.102;8.456;2023-07-16T11:40:16;1.75;;;1.27;;
11386;SDS011;5748;53.102;8.456;2023-07-16T11:42:44;1.73;;;1.58;;
11386;SDS011;5748;53.102;8.456;2023-07-16T11:45:15;1.50;;;1.40;;
11386;SDS011;5748;53.102;8.456;2023-07-16T11:47:43;1.38;;;1.27;;
11386;SDS011;5748;53.102;8.456;2023-07-16T11:50:11;1.27;;;1.17;;
11386;SDS011;5748;53.102;8.456;2023-07-16T11:52:38;3.53;;;1.45;;
11386;SDS011;5748;53.102;8.456;2023-07-16T11:55:06;1.60;;;1.30;;
11386;SDS011;5748;53.102;8.456;2023-07-16T11:57:35;1.42;;;1.33;;
11386;SDS011;5748;53.102;8.456;2023-07-16T12:00:02;1.40;;;1.30;;
11386;SDS011;5748;53.102;8.456;2023-07-16T12:02:30;2.08;;;1.20;;
11386;SDS011;5748;53.102;8.456;2023-07-16T12:04:57;2.30;;;1.50;;
11386;SDS011;5748;53.102;8.456;2023-07-16T12:07:31;1.48;;;1.38;;
11386;SDS011;5748;53.102;8.456;2023-07-16T12:10:00;1.40;;;1.30;;
11386;SDS011;5748;53.102;8.456;2023-07-16T12:12:27;1.58;;;1.42;;
11386;SDS011;5748;53.102;8.456;2023-07-16T12:14:55;1.70;;;1.40;;
11386;SDS011;5748;53.102;8.456;2023-07-16T12:17:22;1.38;;;1.20;;
11386;SDS011;5748;53.102;8.456;2023-07-16T12:19:49;1.77;;;1.45;;
11386;SDS011;5748;53.102;8.456;2023-07-16T12:22:16;1.30;;;1.20;;
11386;SDS011;5748;53.102;8.456;2023-07-16T12:24:44;1.30;;;1.20;;
11386;SDS011;5748;53.102;8.456;2023-07-16T12:27:13;1.30;;;1.20;;
11386;SDS011;5748;53.102;8.456;2023-07-16T12:29:41;1.40;;;1.30;;
11386;SDS011;5748;53.102;8.456;2023-07-16T12:32:10;1.65;;;1.30;;
11386;SDS011;5748;53.102;8.456;2023-07-16T12:34:37;3.55;;;1.65;;
11386;SDS011;5748;53.102;8.456;2023-07-16T12:37:04;1.42;;;1.33;;
11386;SDS011;5748;53.102;8.456;2023-07-16T12:39:31;1.30;;;1.20;;
11386;SDS011;5748;53.102;8.456;2023-07-16T12:41:58;1.58;;;1.48;;
11386;SDS011;5748;53.102;8.456;2023-07-16T12:44:25;1.30;;;1.20;;
11386;SDS011;5748;53.102;8.456;2023-07-16T12:46:52;1.63;;;1.30;;
11386;SDS011;5748;53.102;8.456;2023-07-16T12:49:20;1.65;;;1.35;;
11386;SDS011;5748;53.102;8.456;2023-07-16T12:51:47;1.33;;;1.23;;
11386;SDS011;5748;53.102;8.456;2023-07-16T12:54:14;1.92;;;1.30;;
11386;SDS011;5748;53.102;8.456;2023-07-16T12:56:41;1.38;;;1.27;;
11386;SDS011;5748;53.102;8.456;2023-07-16T12:59:08;2.22;;;1.40;;
11386;SDS011;5748;53.102;8.456;2023-07-16T13:01:35;2.40;;;1.60;;
11386;SDS011;5748;53.102;8.456;2023-07-16T13:04:02;1.40;;;1.30;;
11386;SDS011;5748;53.102;8.456;2023-07-16T13:06:31;1.40;;;1.23;;
11386;SDS011;5748;53.102;8.456;2023-07-16T13:08:58;1.65;;;1.50;;
11386;SDS011;5748;53.102;8.456;2023-07-16T13:11:25;1.50;;;1.40;;
11386;SDS011;5748;53.102;8.456;2023-07-16T13:13:52;1.52;;;1.33;;
11386;SDS011;5748;53.102;8.456;2023-07-16T13:16:19;1.40;;;1.30;;
11386;SDS011;5748;53.102;8.456;2023-07-16T13:18:46;1.70;;;1.60;;
11386;SDS011;5748;53.102;8.456;2023-07-16T13:21:12;1.67;;;1.58;;
11386;SDS011;5748;53.102;8.456;2023-07-16T13:23:41;1.90;;;1.52;;
11386;SDS011;5748;53.102;8.456;2023-07-16T13:26:07;1.73;;;1.63;;
11386;SDS011;5748;53.102;8.456;2023-07-16T13:28:34;1.48;;;1.38;;
11386;SDS011;5748;53.102;8.456;2023-07-16T13:31:01;1.80;;;1.20;;
11386;SDS011;5748;53.102;8.456;2023-07-16T13:33:28;3.13;;;1.80;;
11386;SDS011;5748;53.102;8.456;2023-07-16T13:35:55;1.60;;;1.50;;
11386;SDS011;5748;53.102;8.456;2023-07-16T13:38:25;1.70;;;1.60;;
11386;SDS011;5748;53.102;8.456;2023-07-16T13:40:53;3.08;;;1.50;;
11386;SDS011;5748;53.102;8.456;2023-07-16T13:43:20;2.25;;;1.77;;
11386;SDS011;5748;53.102;8.456;2023-07-16T13:45:47;2.63;;;1.50;;
11386;SDS011;5748;53.102;8.456;2023-07-16T13:48:14;1.50;;;1.40;;
11386;SDS011;5748;53.102;8.456;2023-07-16T13:50:41;1.50;;;1.40;;
11386;SDS011;5748;53.102;8.456;2023-07-16T13:53:07;1.60;;;1.50;;
11386;SDS011;5748;53.102;8.456;2023-07-16T13:55:34;1.60;;;1.33;;
11386;SDS011;5748;53.102;8.456;2023-07-16T13:58:02;1.85;;;1.30;;
11386;SDS011;5748;53.102;8.456;2023-07-16T14:00:29;1.77;;;1.33;;
11386;SDS011;5748;53.102;8.456;2023-07-16T14:02:56;1.70;;;1.55;;
11386;SDS011;5748;53.102;8.456;2023-07-16T14:05:23;1.48;;;1.38;;
11386;SDS011;5748;53.102;8.456;2023-07-16T14:07:50;1.60;;;1.40;;
11386;SDS011;5748;53.102;8.456;2023-07-16T14:10:18;1.33;;;1.20;;
11386;SDS011;5748;53.102;8.456;2023-07-16T14:12:45;1.20;;;1.10;;
11386;SDS011;5748;53.102;8.456;2023-07-16T14:15:13;1.30;;;1.20;;
11386;SDS011;5748;53.102;8.456;2023-07-16T14:17:40;1.40;;;1.30;;
11386;SDS011;5748;53.102;8.456;2023-07-16T14:20:08;1.60;;;1.50;;
11386;SDS011;5748;53.102;8.456;2023-07-16T14:22:36;1.60;;;1.50;;
11386;SDS011;5748;53.102;8.456;2023-07-16T14:25:03;1.73;;;1.50;;
11386;SDS011;5748;53.102;8.456;2023-07-16T14:27:31;1.48;;;1.20;;
11386;SDS011;5748;53.102;8.456;2023-07-16T14:29:57;2.63;;;1.42;;
11386;SDS011;5748;53.102;8.456;2023-07-16T14:32:26;1.52;;;1.42;;
11386;SDS011;5748;53.102;8.456;2023-07-16T14:34:54;1.90;;;1.70;;
11386;SDS011;5748;53.102;8.456;2023-07-16T14:37:20;1.63;;;1.52;;
11386;SDS011;5748;53.102;8.456;2023-07-16T14:39:47;1.58;;;1.48;;
11386;SDS011;5748;53.102;8.456;2023-07-16T14:42:15;1.65;;;1.55;;
11386;SDS011;5748;53.102;8.456;2023-07-16T14:44:42;1.60;;;1.50;;
11386;SDS011;5748;53.102;8.456;2023-07-16T14:47:09;1.85;;;1.52;;
11386;SDS011;5748;53.102;8.456;2023-07-16T14:49:37;1.48;;;1.30;;
11386;SDS011;5748;53.102;8.456;2023-07-16T14:52:04;1.50;;;1.40;;
11386;SDS011;5748;53.102;8.456;2023-07-16T14:54:32;1.60;;;1.45;;
11386;SDS011;5748;53.102;8.456;2023-07-16T14:57:00;1.23;;;1.13;;
11386;SDS011;5748;53.102;8.456;2023-07-16T14:59:28;1.52;;;1.30;;
11386;SDS011;5748;53.102;8.456;2023-07-16T15:01:55;1.70;;;1.60;;
11386;SDS011;5748;53.102;8.456;2023-07-16T15:04:22;1.88;;;1.23;;
11386;SDS011;5748;53.102;8.456;2023-07-16T15:06:50;1.80;;;1.33;;